sensor_id;sensor_type;location;lat;lon;timestamp;pressure;altitude;pressure_sealevel;temperature;humidity
76815;BME280;65768;49.906;19.384;2023-02-01T00:01:25;97761.25;;;1.90;83.49
76815;BME280;65768;49.906;19.384;2023-02-01T00:03:53;97760.45;;;1.68;85.04
76815;BME280;65768;49.906;19.384;2023-02-01T00:06:21;97753.06;;;1.55;85.94
76815;BME280;65768;49.906;19.384;2023-02-01T00:08:54;97752.40;;;1.50;86.24
76815;BME280;65768;49.906;19.384;2023-02-01T00:11:23;97743.11;;;1.50;86.31
76815;BME280;65768;49.906;19.384;2023-02-01T00:13:51;97734.80;;;1.53;86.20
76815;BME280;65768;49.906;19.384;2023-02-01T00:16:26;97728.16;;;1.55;86.13
76815;BME280;65768;49.906;19.384;2023-02-01T00:19:07;97720.77;;;1.61;85.64
76815;BME280;65768;49.906;19.384;2023-02-01T00:21:37;97714.73;;;1.54;85.96
76815;BME280;65768;49.906;19.384;2023-02-01T00:24:06;97716.30;;;1.55;85.79
76815;BME280;65768;49.906;19.384;2023-02-01T00:26:37;97720.69;;;1.58;85.49
76815;BME280;65768;49.906;19.384;2023-02-01T00:29:16;97719.20;;;1.60;85.42
76815;BME280;65768;49.906;19.384;2023-02-01T00:31:45;97719.04;;;1.73;84.79
76815;BME280;65768;49.906;19.384;2023-02-01T00:34:15;97709.04;;;1.72;84.81
76815;BME280;65768;49.906;19.384;2023-02-01T00:36:44;97706.00;;;1.68;84.84
76815;BME280;65768;49.906;19.384;2023-02-01T00:39:13;97713.39;;;1.74;84.58
76815;BME280;65768;49.906;19.384;2023-02-01T00:41:41;97715.33;;;1.70;84.56
76815;BME280;65768;49.906;19.384;2023-02-01T00:44:10;97706.14;;;1.73;84.45
76815;BME280;65768;49.906;19.384;2023-02-01T00:46:38;97700.04;;;1.70;84.53
76815;BME280;65768;49.906;19.384;2023-02-01T00:49:06;97694.52;;;1.69;84.50
76815;BME280;65768;49.906;19.384;2023-02-01T00:51:36;97701.50;;;1.73;84.32
76815;BME280;65768;49.906;19.384;2023-02-01T00:54:04;97705.78;;;1.73;84.27
76815;BME280;65768;49.906;19.384;2023-02-01T00:56:32;97705.67;;;1.75;84.07
76815;BME280;65768;49.906;19.384;2023-02-01T00:59:01;97711.11;;;1.79;83.79
76815;BME280;65768;49.906;19.384;2023-02-01T01:01:29;97711.02;;;1.69;84.13
76815;BME280;65768;49.906;19.384;2023-02-01T01:03:59;97704.42;;;1.67;84.17
76815;BME280;65768;49.906;19.384;2023-02-01T01:06:30;97708.06;;;1.62;84.34
76815;BME280;65768;49.906;19.384;2023-02-01T01:09:01;97711.98;;;1.66;84.06
76815;BME280;65768;49.906;19.384;2023-02-01T01:11:33;97701.44;;;1.71;83.77
76815;BME280;65768;49.906;19.384;2023-02-01T01:14:02;97692.09;;;1.74;83.66
76815;BME280;65768;49.906;19.384;2023-02-01T01:16:31;97695.61;;;1.78;83.36
76815;BME280;65768;49.906;19.384;2023-02-01T01:19:00;97695.99;;;1.86;82.73
76815;BME280;65768;49.906;19.384;2023-02-01T01:21:30;97692.52;;;1.91;82.36
76815;BME280;65768;49.906;19.384;2023-02-01T01:23:59;97685.98;;;1.91;82.36
76815;BME280;65768;49.906;19.384;2023-02-01T01:26:28;97692.80;;;2.02;81.68
76815;BME280;65768;49.906;19.384;2023-02-01T01:28:58;97692.19;;;2.12;81.23
76815;BME280;65768;49.906;19.384;2023-02-01T01:31:27;97697.80;;;2.16;81.38
76815;BME280;65768;49.906;19.384;2023-02-01T01:33:57;97706.20;;;2.22;81.23
76815;BME280;65768;49.906;19.384;2023-02-01T01:36:27;97716.41;;;2.18;81.57
76815;BME280;65768;49.906;19.384;2023-02-01T01:38:56;97708.63;;;2.16;81.79
76815;BME280;65768;49.906;19.384;2023-02-01T01:41:28;97709.35;;;2.11;81.87
76815;BME280;65768;49.906;19.384;2023-02-01T01:44:01;97714.44;;;2.15;81.87
76815;BME280;65768;49.906;19.384;2023-02-01T01:46:32;97721.02;;;1.97;83.41
76815;BME280;65768;49.906;19.384;2023-02-01T01:49:17;97721.77;;;1.85;84.20
76815;BME280;65768;49.906;19.384;2023-02-01T01:51:52;97722.45;;;1.79;84.74
76815;BME280;65768;49.906;19.384;2023-02-01T01:54:28;97745.64;;;1.85;84.52
76815;BME280;65768;49.906;19.384;2023-02-01T16:48:38;97667.77;;;1.98;84.34
76815;BME280;65768;49.906;19.384;2023-02-01T16:51:11;97669.51;;;1.92;84.14
76815;BME280;65768;49.906;19.384;2023-02-01T16:53:40;97671.30;;;1.88;84.23
76815;BME280;65768;49.906;19.384;2023-02-01T16:58:43;97668.28;;;1.84;84.06
76815;BME280;65768;49.906;19.384;2023-02-01T17:01:13;97661.56;;;1.83;83.80
76815;BME280;65768;49.906;19.384;2023-02-01T17:03:42;97670.26;;;1.87;83.71
76815;BME280;65768;49.906;19.384;2023-02-01T17:06:16;97666.66;;;1.88;83.72
76815;BME280;65768;49.906;19.384;2023-02-01T17:08:51;97672.75;;;1.91;83.46
76815;BME280;65768;49.906;19.384;2023-02-01T17:11:20;97676.41;;;1.93;83.34
76815;BME280;65768;49.906;19.384;2023-02-01T17:13:49;97678.59;;;1.98;83.21
76815;BME280;65768;49.906;19.384;2023-02-01T17:19:06;97682.41;;;2.06;82.64
76815;BME280;65768;49.906;19.384;2023-02-01T17:21:42;97689.08;;;2.04;82.55
76815;BME280;65768;49.906;19.384;2023-02-01T17:24:13;97688.45;;;2.07;82.44
76815;BME280;65768;49.906;19.384;2023-02-01T17:26:43;97687.11;;;2.08;82.16
76815;BME280;65768;49.906;19.384;2023-02-01T17:29:11;97691.39;;;2.07;82.38
76815;BME280;65768;49.906;19.384;2023-02-01T17:31:42;97694.79;;;2.05;82.31
76815;BME280;65768;49.906;19.384;2023-02-01T17:34:13;97689.84;;;2.07;81.86
76815;BME280;65768;49.906;19.384;2023-02-01T17:36:47;97687.28;;;2.08;81.96
76815;BME280;65768;49.906;19.384;2023-02-01T17:39:16;97684.08;;;2.04;82.27
76815;BME280;65768;49.906;19.384;2023-02-01T17:42:04;97686.44;;;2.02;82.10
76815;BME280;65768;49.906;19.384;2023-02-01T17:44:32;97686.27;;;2.02;82.12
76815;BME280;65768;49.906;19.384;2023-02-01T17:47:01;97679.56;;;1.95;82.17
76815;BME280;65768;49.906;19.384;2023-02-01T17:49:29;97675.08;;;1.88;82.36
76815;BME280;65768;49.906;19.384;2023-02-01T17:51:57;97678.90;;;1.82;82.46
76815;BME280;65768;49.906;19.384;2023-02-01T17:54:25;97688.96;;;1.93;82.02
76815;BME280;65768;49.906;19.384;2023-02-01T17:56:53;97679.95;;;1.96;81.77
76815;BME280;65768;49.906;19.384;2023-02-01T17:59:21;97675.75;;;1.94;81.82
76815;BME280;65768;49.906;19.384;2023-02-01T18:01:50;97675.33;;;1.98;81.52
76815;BME280;65768;49.906;19.384;2023-02-01T18:04:19;97669.03;;;2.07;81.04
76815;BME280;65768;49.906;19.384;2023-02-01T18:06:48;97666.63;;;2.07;81.14
76815;BME280;65768;49.906;19.384;2023-02-01T18:09:17;97665.58;;;2.06;80.91
76815;BME280;65768;49.906;19.384;2023-02-01T18:11:46;97662.80;;;2.13;80.46
76815;BME280;65768;49.906;19.384;2023-02-01T18:14:16;97660.52;;;2.17;80.07
76815;BME280;65768;49.906;19.384;2023-02-01T18:16:46;97652.27;;;2.17;80.05
76815;BME280;65768;49.906;19.384;2023-02-01T18:19:16;97651.10;;;2.19;79.52
76815;BME280;65768;49.906;19.384;2023-02-01T18:21:45;97649.95;;;2.28;78.75
76815;BME280;65768;49.906;19.384;2023-02-01T18:24:15;97649.73;;;2.27;78.69
76815;BME280;65768;49.906;19.384;2023-02-01T18:26:48;97646.95;;;2.25;78.87
76815;BME280;65768;49.906;19.384;2023-02-01T18:29:20;97648.94;;;2.22;78.95
76815;BME280;65768;49.906;19.384;2023-02-01T18:31:48;97647.56;;;2.22;78.81
76815;BME280;65768;49.906;19.384;2023-02-01T18:34:18;97645.06;;;2.18;79.22
76815;BME280;65768;49.906;19.384;2023-02-01T18:36:51;97638.33;;;2.17;79.15
76815;BME280;65768;49.906;19.384;2023-02-01T18:39:20;97640.19;;;2.16;79.27
76815;BME280;65768;49.906;19.384;2023-02-01T18:41:49;97638.23;;;2.13;79.36
76815;BME280;65768;49.906;19.384;2023-02-01T18:44:19;97637.52;;;2.12;79.32
76815;BME280;65768;49.906;19.384;2023-02-01T18:46:47;97630.67;;;2.13;78.77
76815;BME280;65768;49.906;19.384;2023-02-01T18:49:16;97632.01;;;2.11;78.86
76815;BME280;65768;49.906;19.384;2023-02-01T18:51:47;97627.29;;;2.08;78.78
76815;BME280;65768;49.906;19.384;2023-02-01T18:54:16;97623.65;;;2.14;78.63
76815;BME280;65768;49.906;19.384;2023-02-01T18:56:44;97620.41;;;2.15;78.71
76815;BME280;65768;49.906;19.384;2023-02-01T18:59:13;97613.14;;;2.20;78.41
76815;BME280;65768;49.906;19.384;2023-02-01T19:01:44;97609.95;;;2.24;78.31
76815;BME280;65768;49.906;19.384;2023-02-01T19:04:13;97611.27;;;2.29;78.25
76815;BME280;65768;49.906;19.384;2023-02-01T19:06:42;97611.42;;;2.28;78.39
76815;BME280;65768;49.906;19.384;2023-02-01T19:09:11;97602.77;;;2.26;78.72
76815;BME280;65768;49.906;19.384;2023-02-01T19:11:39;97599.50;;;2.26;78.58
76815;BME280;65768;49.906;19.384;2023-02-01T19:14:08;97601.38;;;2.25;78.99
76815;BME280;65768;49.906;19.384;2023-02-01T19:16:36;97594.72;;;2.27;79.38
76815;BME280;65768;49.906;19.384;2023-02-01T19:19:06;97591.48;;;2.29;79.69
76815;BME280;65768;49.906;19.384;2023-02-01T19:21:35;97583.14;;;2.24;80.02
76815;BME280;65768;49.906;19.384;2023-02-01T19:24:05;97581.92;;;2.24;80.00
76815;BME280;65768;49.906;19.384;2023-02-01T19:26:33;97577.81;;;2.24;80.06
76815;BME280;65768;49.906;19.384;2023-02-01T19:29:02;97579.38;;;2.25;79.97
76815;BME280;65768;49.906;19.384;2023-02-01T19:31:31;97578.77;;;2.28;79.82
76815;BME280;65768;49.906;19.384;2023-02-01T19:34:00;97563.87;;;2.24;80.10
76815;BME280;65768;49.906;19.384;2023-02-01T19:36:28;97563.48;;;2.29;79.92
76815;BME280;65768;49.906;19.384;2023-02-01T19:38:56;97562.81;;;2.38;79.33
76815;BME280;65768;49.906;19.384;2023-02-01T19:41:25;97559.89;;;2.38;79.10
76815;BME280;65768;49.906;19.384;2023-02-01T19:43:53;97553.60;;;2.41;79.00
76815;BME280;65768;49.906;19.384;2023-02-01T19:46:21;97547.72;;;2.40;79.20
76815;BME280;65768;49.906;19.384;2023-02-01T19:48:50;97542.39;;;2.40;78.85
76815;BME280;65768;49.906;19.384;2023-02-01T19:51:19;97542.16;;;2.53;77.87
76815;BME280;65768;49.906;19.384;2023-02-01T19:53:47;97536.08;;;2.59;77.94
76815;BME280;65768;49.906;19.384;2023-02-01T19:56:15;97537.30;;;2.60;77.55
76815;BME280;65768;49.906;19.384;2023-02-01T19:58:43;97538.93;;;2.64;77.31
76815;BME280;65768;49.906;19.384;2023-02-01T20:01:12;97546.23;;;2.68;77.13
76815;BME280;65768;49.906;19.384;2023-02-01T20:03:41;97548.02;;;2.71;76.88
76815;BME280;65768;49.906;19.384;2023-02-01T20:06:09;97545.87;;;2.75;76.54
76815;BME280;65768;49.906;19.384;2023-02-01T20:08:38;97541.88;;;2.74;76.72
76815;BME280;65768;49.906;19.384;2023-02-01T20:11:07;97543.41;;;2.72;76.63
76815;BME280;65768;49.906;19.384;2023-02-01T20:13:36;97542.16;;;2.71;76.59
76815;BME280;65768;49.906;19.384;2023-02-01T20:16:06;97538.35;;;2.69;76.70
76815;BME280;65768;49.906;19.384;2023-02-01T20:18:36;97537.70;;;2.71;76.29
76815;BME280;65768;49.906;19.384;2023-02-01T20:21:05;97542.83;;;2.78;76.21
76815;BME280;65768;49.906;19.384;2023-02-01T20:23:34;97539.33;;;2.67;76.82
76815;BME280;65768;49.906;19.384;2023-02-01T20:26:04;97539.14;;;2.66;76.67
76815;BME280;65768;49.906;19.384;2023-02-01T20:28:33;97534.58;;;2.61;76.81
76815;BME280;65768;49.906;19.384;2023-02-01T20:31:03;97544.24;;;2.63;76.81
76815;BME280;65768;49.906;19.384;2023-02-01T20:33:32;97540.69;;;2.66;76.71
76815;BME280;65768;49.906;19.384;2023-02-01T20:36:00;97536.80;;;2.60;77.24
76815;BME280;65768;49.906;19.384;2023-02-01T20:38:28;97532.08;;;2.56;77.30
76815;BME280;65768;49.906;19.384;2023-02-01T20:41:07;97524.85;;;2.56;77.73
76815;BME280;65768;49.906;19.384;2023-02-01T20:43:35;97523.05;;;2.52;78.16
76815;BME280;65768;49.906;19.384;2023-02-01T20:46:04;97522.06;;;2.54;78.22
76815;BME280;65768;49.906;19.384;2023-02-01T20:48:32;97518.42;;;2.46;79.00
76815;BME280;65768;49.906;19.384;2023-02-01T20:51:00;97505.91;;;2.39;79.14
76815;BME280;65768;49.906;19.384;2023-02-01T20:53:29;97502.42;;;2.37;79.06
76815;BME280;65768;49.906;19.384;2023-02-01T20:55:57;97503.27;;;2.36;78.99
76815;BME280;65768;49.906;19.384;2023-02-01T20:58:26;97500.19;;;2.37;78.71
76815;BME280;65768;49.906;19.384;2023-02-01T21:00:54;97497.69;;;2.41;78.24
76815;BME280;65768;49.906;19.384;2023-02-01T21:03:23;97490.29;;;2.41;78.05
76815;BME280;65768;49.906;19.384;2023-02-01T21:05:53;97482.73;;;2.49;77.29
76815;BME280;65768;49.906;19.384;2023-02-01T21:08:24;97475.45;;;2.46;77.44
76815;BME280;65768;49.906;19.384;2023-02-01T21:13:25;97475.04;;;2.52;77.00
76815;BME280;65768;49.906;19.384;2023-02-01T21:15:53;97480.79;;;2.47;77.67
76815;BME280;65768;49.906;19.384;2023-02-01T21:18:22;97488.36;;;2.22;80.09
76815;BME280;65768;49.906;19.384;2023-02-01T21:20:51;97488.95;;;2.01;81.92
76815;BME280;65768;49.906;19.384;2023-02-01T21:23:19;97489.16;;;1.80;83.40
76815;BME280;65768;49.906;19.384;2023-02-01T21:25:47;97491.75;;;1.59;85.17
76815;BME280;65768;49.906;19.384;2023-02-01T21:28:16;97487.82;;;1.52;85.79
76815;BME280;65768;49.906;19.384;2023-02-01T21:30:44;97487.17;;;1.47;86.08
76815;BME280;65768;49.906;19.384;2023-02-01T21:33:13;97473.52;;;1.44;86.42
76815;BME280;65768;49.906;19.384;2023-02-01T21:35:41;97474.29;;;1.39;86.75
76815;BME280;65768;49.906;19.384;2023-02-01T21:38:10;97465.17;;;1.32;87.40
76815;BME280;65768;49.906;19.384;2023-02-01T21:40:39;97458.00;;;1.27;87.71
76815;BME280;65768;49.906;19.384;2023-02-01T21:43:07;97453.17;;;1.25;87.83
76815;BME280;65768;49.906;19.384;2023-02-01T21:45:36;97449.02;;;1.31;87.63
76815;BME280;65768;49.906;19.384;2023-02-01T21:48:05;97443.71;;;1.31;87.60
76815;BME280;65768;49.906;19.384;2023-02-01T21:50:37;97442.16;;;1.39;87.35
76815;BME280;65768;49.906;19.384;2023-02-01T21:53:05;97439.20;;;1.44;87.01
76815;BME280;65768;49.906;19.384;2023-02-01T21:55:33;97440.59;;;1.52;86.58
76815;BME280;65768;49.906;19.384;2023-02-01T21:58:02;97437.31;;;1.59;85.95
76815;BME280;65768;49.906;19.384;2023-02-01T22:00:30;97432.35;;;1.68;85.42
76815;BME280;65768;49.906;19.384;2023-02-01T22:02:59;97429.73;;;1.73;85.02
76815;BME280;65768;49.906;19.384;2023-02-01T22:05:27;97428.48;;;1.80;84.71
76815;BME280;65768;49.906;19.384;2023-02-01T22:07:56;97428.49;;;1.88;84.03
76815;BME280;65768;49.906;19.384;2023-02-01T22:10:24;97437.79;;;2.04;82.90
76815;BME280;65768;49.906;19.384;2023-02-01T22:12:52;97439.27;;;2.09;82.74
76815;BME280;65768;49.906;19.384;2023-02-01T22:15:21;97434.40;;;2.07;82.68
76815;BME280;65768;49.906;19.384;2023-02-01T22:17:49;97437.48;;;2.14;81.97
76815;BME280;65768;49.906;19.384;2023-02-01T22:20:17;97436.65;;;2.16;81.89
76815;BME280;65768;49.906;19.384;2023-02-01T22:22:46;97443.21;;;2.17;81.92
76815;BME280;65768;49.906;19.384;2023-02-01T22:25:15;97445.66;;;2.11;82.29
76815;BME280;65768;49.906;19.384;2023-02-01T22:27:43;97452.65;;;2.17;82.15
76815;BME280;65768;49.906;19.384;2023-02-01T22:30:12;97448.24;;;2.19;82.14
76815;BME280;65768;49.906;19.384;2023-02-01T22:32:40;97459.63;;;2.21;82.56
76815;BME280;65768;49.906;19.384;2023-02-01T22:35:09;97455.19;;;2.14;82.76
76815;BME280;65768;49.906;19.384;2023-02-01T22:37:37;97453.48;;;2.15;83.02
76815;BME280;65768;49.906;19.384;2023-02-01T22:40:06;97455.27;;;2.11;83.25
76815;BME280;65768;49.906;19.384;2023-02-01T22:42:36;97446.48;;;2.08;83.48
76815;BME280;65768;49.906;19.384;2023-02-01T22:45:04;97444.30;;;2.04;83.58
76815;BME280;65768;49.906;19.384;2023-02-01T22:47:32;97441.77;;;1.98;83.87
76815;BME280;65768;49.906;19.384;2023-02-01T22:50:01;97440.42;;;1.98;84.06
76815;BME280;65768;49.906;19.384;2023-02-01T22:52:29;97440.16;;;1.95;84.11
76815;BME280;65768;49.906;19.384;2023-02-01T22:54:57;97443.13;;;1.97;83.93
76815;BME280;65768;49.906;19.384;2023-02-01T22:57:26;97445.15;;;2.03;83.64
76815;BME280;65768;49.906;19.384;2023-02-01T22:59:54;97443.05;;;2.01;83.67
76815;BME280;65768;49.906;19.384;2023-02-01T23:02:22;97440.25;;;1.99;83.45
76815;BME280;65768;49.906;19.384;2023-02-01T23:04:50;97429.55;;;1.97;83.47
76815;BME280;65768;49.906;19.384;2023-02-01T23:07:18;97427.83;;;1.96;83.28
76815;BME280;65768;49.906;19.384;2023-02-01T23:09:47;97421.96;;;1.95;83.22
76815;BME280;65768;49.906;19.384;2023-02-01T23:12:15;97413.30;;;2.01;82.85
76815;BME280;65768;49.906;19.384;2023-02-01T23:14:43;97414.58;;;2.04;82.57
76815;BME280;65768;49.906;19.384;2023-02-01T23:17:39;97419.70;;;2.02;82.54
76815;BME280;65768;49.906;19.384;2023-02-01T23:20:13;97426.35;;;2.08;82.19
76815;BME280;65768;49.906;19.384;2023-02-01T23:22:46;97428.85;;;2.13;81.84
76815;BME280;65768;49.906;19.384;2023-02-01T23:25:17;97428.95;;;2.17;81.53
76815;BME280;65768;49.906;19.384;2023-02-01T23:27:45;97433.34;;;2.14;81.49
76815;BME280;65768;49.906;19.384;2023-02-01T23:30:14;97443.10;;;2.12;81.55
76815;BME280;65768;49.906;19.384;2023-02-01T23:32:42;97432.05;;;2.10;81.72
76815;BME280;65768;49.906;19.384;2023-02-01T23:35:10;97432.20;;;1.92;82.43
76815;BME280;65768;49.906;19.384;2023-02-01T23:37:40;97440.92;;;1.75;83.87
76815;BME280;65768;49.906;19.384;2023-02-01T23:40:09;97450.13;;;1.56;85.07
76815;BME280;65768;49.906;19.384;2023-02-01T23:42:37;97454.42;;;1.41;86.13
76815;BME280;65768;49.906;19.384;2023-02-01T23:45:06;97457.84;;;1.27;86.78
76815;BME280;65768;49.906;19.384;2023-02-01T23:47:34;97461.52;;;1.02;87.93
76815;BME280;65768;49.906;19.384;2023-02-01T23:50:02;97467.58;;;0.84;88.97
76815;BME280;65768;49.906;19.384;2023-02-01T23:52:31;97472.13;;;0.75;89.55
76815;BME280;65768;49.906;19.384;2023-02-01T23:54:59;97468.78;;;0.65;90.15
76815;BME280;65768;49.906;19.384;2023-02-01T23:57:26;97466.35;;;0.52;90.52
76815;BME280;65768;49.906;19.384;2023-02-01T23:59:54;97469.91;;;0.37;91.30
